Time,TemperatureF,DewpointF,PressureIn,WindDirection,WindDirectionDegrees,WindSpeedMPH,WindSpeedGustMPH,Humidity,HourlyPrecipIn,Conditions,Clouds,dailyrainin,SoftwareType,DateUTC
2013-04-21 00:00:00,31.0,24.9,30.36,ENE,65,0.0,0.0,78,0.00,,,0.03,Wunderground v.1.15,2013-04-21 04:00:00,
2013-04-21 00:05:00,30.9,24.5,30.36,ENE,65,0.0,0.0,77,0.00,,,0.00,Wunderground v.1.15,2013-04-21 04:05:00,
2013-04-21 00:10:00,30.6,24.2,30.36,ENE,65,0.0,0.0,77,0.00,,,0.00,Wunderground v.1.15,2013-04-21 04:10:00,
2013-04-21 00:15:00,30.4,24.4,30.36,ENE,65,0.0,0.0,78,0.00,,,0.00,Wunderground v.1.15,2013-04-21 04:15:00,
2013-04-21 00:20:00,30.3,24.3,30.37,ENE,65,0.0,0.0,78,0.00,,,0.00,Wunderground v.1.15,2013-04-21 04:20:00,
2013-04-21 00:25:00,30.3,24.6,30.37,ENE,65,0.0,0.0,79,0.00,,,0.00,Wunderground v.1.15,2013-04-21 04:25:00,
2013-04-21 00:30:00,30.3,24.6,30.37,ENE,65,0.0,0.0,79,0.00,,,0.00,Wunderground v.1.15,2013-04-21 04:30:00,
2013-04-21 00:40:00,30.1,25.0,30.37,ENE,65,0.0,0.0,81,0.00,,,0.00,Wunderground v.1.15,2013-04-21 04:40:00,
2013-04-21 00:45:00,30.1,25.3,30.37,ENE,65,0.0,0.0,82,0.00,,,0.00,Wunderground v.1.15,2013-04-21 04:45:00,
2013-04-21 00:55:00,30.0,25.2,30.38,ENE,65,0.0,0.0,82,0.00,,,0.00,Wunderground v.1.15,2013-04-21 04:55:00,
2013-04-21 01:00:00,29.8,25.0,30.38,ENE,65,0.0,0.0,82,0.00,,,0.00,Wunderground v.1.15,2013-04-21 05:00:00,
2013-04-21 01:10:00,29.5,24.7,30.38,ENE,65,0.0,0.0,82,0.00,,,0.00,Wunderground v.1.15,2013-04-21 05:10:00,
2013-04-21 01:15:00,29.5,25.3,30.38,ENE,65,0.0,0.0,84,0.00,,,0.00,Wunderground v.1.15,2013-04-21 05:15:00,
2013-04-21 01:25:00,29.4,25.2,30.39,ENE,65,0.0,0.0,84,0.00,,,0.00,Wunderground v.1.15,2013-04-21 05:25:00,
2013-04-21 01:30:00,29.4,25.2,30.39,ENE,65,0.0,0.0,84,0.00,,,0.00,Wunderground v.1.15,2013-04-21 05:30:00,
2013-04-21 01:40:00,29.5,25.5,30.39,ENE,65,0.0,0.0,85,0.00,,,0.00,Wunderground v.1.15,2013-04-21 05:40:00,
2013-04-21 01:45:00,29.5,25.5,30.39,ENE,65,0.0,0.0,85,0.00,,,0.00,Wunderground v.1.15,2013-04-21 05:45:00,
2013-04-21 01:55:00,29.4,25.2,30.39,ENE,65,0.0,0.0,84,0.00,,,0.00,Wunderground v.1.15,2013-04-21 05:55:00,
2013-04-21 02:00:00,29.3,25.1,30.39,ENE,65,0.0,0.0,84,0.00,,,0.00,Wunderground v.1.15,2013-04-21 06:00:00,
2013-04-21 02:10:00,29.3,25.1,30.40,ENE,65,0.0,0.0,84,0.00,,,0.00,Wunderground v.1.15,2013-04-21 06:10:00,
2013-04-21 02:15:00,29.3,25.4,30.40,ENE,65,0.0,0.0,85,0.00,,,0.00,Wunderground v.1.15,2013-04-21 06:15:00,
2013-04-21 02:25:00,29.1,24.9,30.40,ENE,65,0.0,0.0,84,0.00,,,0.00,Wunderground v.1.15,2013-04-21 06:25:00,
2013-04-21 02:30:00,29.0,24.8,30.40,ENE,65,0.0,0.0,84,0.00,,,0.00,Wunderground v.1.15,2013-04-21 06:30:00,
2013-04-21 02:40:00,28.7,24.5,30.41,ENE,65,0.0,0.0,84,0.00,,,0.00,Wunderground v.1.15,2013-04-21 06:40:00,
2013-04-21 02:45:00,28.5,24.3,30.41,ENE,65,0.0,0.0,84,0.00,,,0.00,Wunderground v.1.15,2013-04-21 06:45:00,
2013-04-21 02:55:00,28.4,24.2,30.41,ENE,65,0.0,0.0,84,0.00,,,0.00,Wunderground v.1.15,2013-04-21 06:55:00,
2013-04-21 03:00:00,28.2,24.0,30.41,ENE,65,0.0,0.0,84,0.00,,,0.00,Wunderground v.1.15,2013-04-21 07:00:00,
2013-04-21 03:10:00,27.9,23.7,30.41,ENE,65,0.0,0.0,84,0.00,,,0.00,Wunderground v.1.15,2013-04-21 07:10:00,
2013-04-21 03:15:00,27.9,23.7,30.41,ENE,65,0.0,0.0,84,0.00,,,0.00,Wunderground v.1.15,2013-04-21 07:15:00,
2013-04-21 03:25:00,27.8,23.9,30.41,ENE,65,0.0,0.0,85,0.00,,,0.00,Wunderground v.1.15,2013-04-21 07:25:00,
2013-04-21 03:30:00,27.8,23.9,30.41,ENE,65,0.0,0.0,85,0.00,,,0.00,Wunderground v.1.15,2013-04-21 07:30:00,
2013-04-21 03:40:00,27.6,23.7,30.41,ENE,65,0.0,0.0,85,0.00,,,0.00,Wunderground v.1.15,2013-04-21 07:40:00,
2013-04-21 03:45:00,27.5,23.6,30.41,ENE,65,0.0,0.0,85,0.00,,,0.00,Wunderground v.1.15,2013-04-21 07:45:00,
2013-04-21 03:55:00,27.5,23.6,30.41,ENE,65,0.0,0.0,85,0.00,,,0.00,Wunderground v.1.15,2013-04-21 07:55:00,
2013-04-21 04:00:00,27.5,23.6,30.41,ENE,65,0.0,0.0,85,0.00,,,0.00,Wunderground v.1.15,2013-04-21 08:00:00,
2013-04-21 04:10:00,27.5,23.9,30.42,ENE,65,0.0,0.0,86,0.00,,,0.00,Wunderground v.1.15,2013-04-21 08:10:00,
2013-04-21 04:15:00,27.3,23.7,30.42,ENE,65,0.0,0.0,86,0.00,,,0.00,Wunderground v.1.15,2013-04-21 08:15:00,
2013-04-21 04:25:00,27.3,23.7,30.42,ENE,65,0.0,0.0,86,0.00,,,0.00,Wunderground v.1.15,2013-04-21 08:25:00,
2013-04-21 04:30:00,27.2,23.6,30.42,ENE,65,0.0,0.0,86,0.00,,,0.00,Wunderground v.1.15,2013-04-21 08:30:00,
2013-04-21 04:40:00,26.9,23.3,30.43,ENE,65,0.0,0.0,86,0.00,,,0.00,Wunderground v.1.15,2013-04-21 08:40:00,
2013-04-21 04:45:00,26.7,23.1,30.43,ENE,65,0.0,0.0,86,0.00,,,0.00,Wunderground v.1.15,2013-04-21 08:45:00,
2013-04-21 04:55:00,26.7,23.1,30.43,ENE,65,0.0,0.0,86,0.00,,,0.00,Wunderground v.1.15,2013-04-21 08:55:00,
2013-04-21 05:00:00,26.6,23.0,30.43,ENE,65,0.0,0.0,86,0.00,,,0.00,Wunderground v.1.15,2013-04-21 09:00:00,
2013-04-21 05:10:00,26.4,22.8,30.43,ENE,65,0.0,0.0,86,0.00,,,0.00,Wunderground v.1.15,2013-04-21 09:10:00,
2013-04-21 05:15:00,26.6,23.3,30.43,ENE,65,0.0,0.0,87,0.00,,,0.00,Wunderground v.1.15,2013-04-21 09:15:00,
2013-04-21 05:25:00,26.6,23.3,30.43,ENE,65,0.0,0.0,87,0.00,,,0.00,Wunderground v.1.15,2013-04-21 09:25:00,
2013-04-21 05:30:00,26.6,23.3,30.43,ENE,65,0.0,0.0,87,0.00,,,0.00,Wunderground v.1.15,2013-04-21 09:30:00,
2013-04-21 05:40:00,26.4,23.3,30.43,ENE,65,0.0,0.0,88,0.00,,,0.00,Wunderground v.1.15,2013-04-21 09:40:00,
2013-04-21 05:45:00,26.4,23.3,30.43,ENE,65,0.0,0.0,88,0.00,,,0.00,Wunderground v.1.15,2013-04-21 09:45:00,
2013-04-21 05:55:00,26.3,23.2,30.44,ENE,65,0.0,0.0,88,0.00,,,0.00,Wunderground v.1.15,2013-04-21 09:55:00,
2013-04-21 06:00:00,26.4,23.3,30.44,ENE,65,0.0,0.0,88,0.00,,,0.00,Wunderground v.1.15,2013-04-21 10:00:00,
2013-04-21 06:10:00,26.3,23.2,30.45,ENE,65,0.0,0.0,88,0.00,,,0.00,Wunderground v.1.15,2013-04-21 10:10:00,
2013-04-21 06:15:00,26.3,23.2,30.45,ENE,65,0.0,0.0,88,0.00,,,0.00,Wunderground v.1.15,2013-04-21 10:15:00,
2013-04-21 06:25:00,26.3,23.2,30.45,ENE,65,0.0,0.0,88,0.00,,,0.00,Wunderground v.1.15,2013-04-21 10:25:00,
2013-04-21 06:30:00,26.1,23.0,30.45,ENE,65,0.0,0.0,88,0.00,,,0.00,Wunderground v.1.15,2013-04-21 10:30:00,
2013-04-21 06:40:00,26.0,22.9,30.46,ENE,65,0.0,0.0,88,0.00,,,0.00,Wunderground v.1.15,2013-04-21 10:40:00,
2013-04-21 06:45:00,25.8,22.7,30.46,ENE,65,0.0,0.0,88,0.00,,,0.00,Wunderground v.1.15,2013-04-21 10:45:00,
2013-04-21 06:55:00,25.8,23.0,30.47,ENE,65,0.0,0.0,89,0.00,,,0.00,Wunderground v.1.15,2013-04-21 10:55:00,
2013-04-21 07:00:00,25.8,23.0,30.47,ENE,65,0.0,0.0,89,0.00,,,0.00,Wunderground v.1.15,2013-04-21 11:00:00,
2013-04-21 07:10:00,26.0,23.2,30.48,ENE,65,0.0,0.0,89,0.00,,,0.00,Wunderground v.1.15,2013-04-21 11:10:00,
2013-04-21 07:15:00,26.0,23.2,30.48,ENE,65,0.0,0.0,89,0.00,,,0.00,Wunderground v.1.15,2013-04-21 11:15:00,
2013-04-21 07:25:00,26.1,23.6,30.49,ENE,65,0.0,0.0,90,0.00,,,0.00,Wunderground v.1.15,2013-04-21 11:25:00,
2013-04-21 07:30:00,26.3,23.8,30.49,ENE,65,0.0,0.0,90,0.00,,,0.00,Wunderground v.1.15,2013-04-21 11:30:00,
2013-04-21 07:40:00,26.7,24.2,30.50,ENE,65,0.0,0.0,90,0.00,,,0.00,Wunderground v.1.15,2013-04-21 11:40:00,
2013-04-21 07:45:00,26.9,24.4,30.50,ENE,65,0.0,0.0,90,0.00,,,0.00,Wunderground v.1.15,2013-04-21 11:45:00,
2013-04-21 07:55:00,27.3,24.8,30.50,ENE,65,0.0,0.0,90,0.00,,,0.00,Wunderground v.1.15,2013-04-21 11:55:00,
2013-04-21 08:00:00,27.6,25.1,30.50,ENE,65,0.0,0.0,90,0.00,,,0.00,Wunderground v.1.15,2013-04-21 12:00:00,
2013-04-21 08:10:00,27.9,25.3,30.51,ENE,65,0.0,0.0,90,0.00,,,0.00,Wunderground v.1.15,2013-04-21 12:10:00,
2013-04-21 08:15:00,28.4,26.1,30.51,ENE,65,0.0,0.0,91,0.00,,,0.00,Wunderground v.1.15,2013-04-21 12:15:00,
2013-04-21 08:25:00,29.4,26.8,30.52,ENE,65,0.0,0.0,90,0.00,,,0.00,Wunderground v.1.15,2013-04-21 12:25:00,
2013-04-21 08:30:00,30.4,27.5,30.52,ENE,65,0.0,0.0,89,0.00,,,0.00,Wunderground v.1.15,2013-04-21 12:30:00,
2013-04-21 08:40:00,32.2,27.3,30.52,ENE,65,0.0,1.0,82,0.00,,,0.00,Wunderground v.1.15,2013-04-21 12:40:00,
2013-04-21 08:45:00,33.1,27.3,30.52,ENE,59,0.0,1.0,79,0.00,,,0.00,Wunderground v.1.15,2013-04-21 12:45:00,
2013-04-21 08:55:00,34.3,26.9,30.53,ENE,59,0.0,1.0,74,0.00,,,0.00,Wunderground v.1.15,2013-04-21 12:55:00,
2013-04-21 09:00:00,34.9,26.1,30.53,ENE,57,0.0,0.0,70,0.00,,,0.00,Wunderground v.1.15,2013-04-21 13:00:00,
2013-04-21 09:10:00,35.9,26.0,30.53,ENE,58,0.0,1.0,67,0.00,,,0.00,Wunderground v.1.15,2013-04-21 13:10:00,
2013-04-21 09:15:00,36.5,25.8,30.53,ENE,59,0.0,2.0,65,0.00,,,0.00,Wunderground v.1.15,2013-04-21 13:15:00,
2013-04-21 09:25:00,37.2,26.1,30.53,ENE,57,1.0,1.0,64,0.00,,,0.00,Wunderground v.1.15,2013-04-21 13:25:00,
2013-04-21 09:30:00,37.5,26.4,30.53,ENE,61,1.0,1.0,64,0.00,,,0.00,Wunderground v.1.15,2013-04-21 13:30:00,
2013-04-21 09:40:00,37.8,25.1,30.53,East,86,1.0,1.0,60,0.00,,,0.00,Wunderground v.1.15,2013-04-21 13:40:00,
2013-04-21 09:45:00,38.2,25.5,30.53,East,84,1.0,1.0,60,0.00,,,0.00,Wunderground v.1.15,2013-04-21 13:45:00,
2013-04-21 09:55:00,39.3,24.9,30.53,East,92,1.0,1.0,56,0.00,,,0.00,Wunderground v.1.15,2013-04-21 13:55:00,
2013-04-21 10:00:00,39.5,24.7,30.53,East,96,1.0,1.0,55,0.00,,,0.00,Wunderground v.1.15,2013-04-21 14:00:00,
2013-04-21 10:10:00,40.1,25.2,30.53,East,86,1.0,1.0,55,0.00,,,0.00,Wunderground v.1.15,2013-04-21 14:10:00,
2013-04-21 10:15:00,40.6,23.9,30.53,ENE,57,1.0,1.0,51,0.00,,,0.00,Wunderground v.1.15,2013-04-21 14:15:00,
2013-04-21 10:25:00,41.1,24.3,30.53,East,79,1.0,3.0,51,0.00,,,0.00,Wunderground v.1.15,2013-04-21 14:25:00,
2013-04-21 10:30:00,41.3,24.0,30.53,East,82,1.0,1.0,50,0.00,,,0.00,Wunderground v.1.15,2013-04-21 14:30:00,
2013-04-21 10:40:00,41.8,23.0,30.53,ENE,77,1.0,2.0,47,0.00,,,0.00,Wunderground v.1.15,2013-04-21 14:40:00,
2013-04-21 10:45:00,42.1,23.3,30.53,ENE,68,1.0,3.0,47,0.00,,,0.00,Wunderground v.1.15,2013-04-21 14:45:00,
2013-04-21 10:55:00,41.9,21.5,30.53,NW,315,2.0,3.0,44,0.00,,,0.00,Wunderground v.1.15,2013-04-21 14:55:00,
2013-04-21 11:00:00,42.1,21.7,30.53,ENE,65,2.0,2.0,44,0.00,,,0.00,Wunderground v.1.15,2013-04-21 15:00:00,
2013-04-21 11:05:00,42.5,23.2,30.53,NE,44,1.0,2.0,46,0.00,,,0.00,Wunderground v.1.15,2013-04-21 15:05:00,
2013-04-21 11:15:00,42.9,20.8,30.53,East,88,1.0,2.0,41,0.00,,,0.00,Wunderground v.1.15,2013-04-21 15:15:00,
2013-04-21 11:25:00,43.8,22.7,30.53,East,79,1.0,1.0,43,0.00,,,0.00,Wunderground v.1.15,2013-04-21 15:25:00,
2013-04-21 11:30:00,44.1,23.0,30.53,SSW,193,1.0,3.0,43,0.00,,,0.00,Wunderground v.1.15,2013-04-21 15:30:00,
2013-04-21 11:40:00,44.1,20.7,30.53,ENE,67,1.0,1.0,39,0.00,,,0.00,Wunderground v.1.15,2013-04-21 15:40:00,
2013-04-21 11:45:00,43.6,22.5,30.53,East,83,2.0,2.0,43,0.00,,,0.00,Wunderground v.1.15,2013-04-21 15:45:00,
2013-04-21 11:55:00,44.1,23.0,30.53,ENE,76,1.0,1.0,43,0.00,,,0.00,Wunderground v.1.15,2013-04-21 15:55:00,
2013-04-21 12:00:00,44.6,24.0,30.53,ENE,64,1.0,3.0,44,0.00,,,0.00,Wunderground v.1.15,2013-04-21 16:00:00,
2013-04-21 12:05:00,44.9,23.7,30.53,NE,42,1.0,3.0,43,0.00,,,0.00,Wunderground v.1.15,2013-04-21 16:05:00,
2013-04-21 12:15:00,45.2,24.6,30.53,NE,40,1.0,4.0,44,0.00,,,0.00,Wunderground v.1.15,2013-04-21 16:15:00,
2013-04-21 12:25:00,46.1,24.8,30.52,NE,56,1.0,2.0,43,0.00,,,0.00,Wunderground v.1.15,2013-04-21 16:25:00,
2013-04-21 12:30:00,46.5,22.2,30.52,ENE,74,1.0,2.0,38,0.00,,,0.00,Wunderground v.1.15,2013-04-21 16:30:00,
2013-04-21 12:40:00,46.5,22.2,30.51,East,86,2.0,2.0,38,0.00,,,0.00,Wunderground v.1.15,2013-04-21 16:40:00,
2013-04-21 12:45:00,46.8,19.9,30.51,NE,55,1.0,2.0,34,0.00,,,0.00,Wunderground v.1.15,2013-04-21 16:45:00,
2013-04-21 12:55:00,47.4,23.7,30.51,West,264,1.0,2.0,39,0.00,,,0.00,Wunderground v.1.15,2013-04-21 16:55:00,
2013-04-21 13:00:00,47.1,21.5,30.51,ENE,74,2.0,2.0,36,0.00,,,0.00,Wunderground v.1.15,2013-04-21 17:00:00,
2013-04-21 13:10:00,48.0,22.3,30.50,ENE,69,1.0,2.0,36,0.00,,,0.00,Wunderground v.1.15,2013-04-21 17:10:00,
2013-04-21 13:15:00,48.2,27.3,30.50,SW,227,2.0,2.0,44,0.00,,,0.00,Wunderground v.1.15,2013-04-21 17:15:00,
2013-04-21 13:25:00,48.5,24.6,30.50,ENE,64,1.0,2.0,39,0.00,,,0.00,Wunderground v.1.15,2013-04-21 17:25:00,
2013-04-21 13:30:00,48.3,23.8,30.50,SSW,197,1.0,1.0,38,0.00,,,0.00,Wunderground v.1.15,2013-04-21 17:30:00,
2013-04-21 13:40:00,48.5,19.2,30.49,ENE,72,1.0,1.0,31,0.00,,,0.00,Wunderground v.1.15,2013-04-21 17:40:00,
2013-04-21 13:45:00,48.6,27.1,30.49,SW,234,1.0,2.0,43,0.00,,,0.00,Wunderground v.1.15,2013-04-21 17:45:00,
2013-04-21 13:55:00,49.1,22.6,30.48,East,88,1.0,1.0,35,0.00,,,0.00,Wunderground v.1.15,2013-04-21 17:55:00,
2013-04-21 14:00:00,49.5,22.9,30.48,East,87,1.0,1.0,35,0.00,,,0.00,Wunderground v.1.15,2013-04-21 18:00:00,
2013-04-21 14:10:00,49.8,23.2,30.47,ENE,74,2.0,3.0,35,0.00,,,0.00,Wunderground v.1.15,2013-04-21 18:10:00,
2013-04-21 14:15:00,49.9,21.9,30.47,East,79,2.0,3.0,33,0.00,,,0.00,Wunderground v.1.15,2013-04-21 18:15:00,
2013-04-21 14:25:00,49.6,23.0,30.46,NNE,24,2.0,2.0,35,0.00,,,0.00,Wunderground v.1.15,2013-04-21 18:25:00,
2013-04-21 14:30:00,50.2,26.8,30.46,ENE,71,1.0,3.0,40,0.00,,,0.00,Wunderground v.1.15,2013-04-21 18:30:00,
2013-04-21 14:40:00,50.4,22.3,30.46,ENE,70,1.0,1.0,33,0.00,,,0.00,Wunderground v.1.15,2013-04-21 18:40:00,
2013-04-21 14:45:00,50.4,23.1,30.46,ESE,111,1.0,1.0,34,0.00,,,0.00,Wunderground v.1.15,2013-04-21 18:45:00,
2013-04-21 14:55:00,51.1,20.7,30.45,ENE,70,1.0,1.0,30,0.00,,,0.00,Wunderground v.1.15,2013-04-21 18:55:00,
2013-04-21 15:00:00,51.4,21.7,30.45,NE,45,1.0,1.0,31,0.00,,,0.00,Wunderground v.1.15,2013-04-21 19:00:00,
2013-04-21 15:05:00,51.9,21.4,30.44,SSE,150,1.0,1.0,30,0.00,,,0.00,Wunderground v.1.15,2013-04-21 19:05:00,
2013-04-21 15:15:00,50.7,23.3,30.44,East,90,2.0,3.0,34,0.00,,,0.00,Wunderground v.1.15,2013-04-21 19:15:00,
2013-04-21 15:25:00,51.4,23.2,30.43,East,86,1.0,3.0,33,0.00,,,0.00,Wunderground v.1.15,2013-04-21 19:25:00,
2013-04-21 15:30:00,51.9,25.8,30.43,SE,140,1.0,3.0,36,0.00,,,0.00,Wunderground v.1.15,2013-04-21 19:30:00,
2013-04-21 15:40:00,52.3,24.7,30.43,ESE,107,1.0,1.0,34,0.00,,,0.00,Wunderground v.1.15,2013-04-21 19:40:00,
2013-04-21 15:45:00,52.2,24.6,30.43,SSE,150,1.0,1.0,34,0.00,,,0.00,Wunderground v.1.15,2013-04-21 19:45:00,
2013-04-21 15:55:00,52.6,23.5,30.42,SE,144,1.0,1.0,32,0.00,,,0.00,Wunderground v.1.15,2013-04-21 19:55:00,
2013-04-21 16:00:00,52.8,27.2,30.42,East,100,1.0,2.0,37,0.00,,,0.00,Wunderground v.1.15,2013-04-21 20:00:00,
2013-04-21 16:10:00,52.3,25.4,30.41,SE,142,1.0,1.0,35,0.00,,,0.00,Wunderground v.1.15,2013-04-21 20:10:00,
2013-04-21 16:15:00,52.5,20.3,30.41,SE,132,1.0,2.0,28,0.00,,,0.00,Wunderground v.1.15,2013-04-21 20:15:00,
2013-04-21 16:25:00,52.5,23.5,30.40,WSW,253,1.0,2.0,32,0.00,,,0.00,Wunderground v.1.15,2013-04-21 20:25:00,
2013-04-21 16:30:00,52.8,25.9,30.40,East,91,1.0,1.0,35,0.00,,,0.00,Wunderground v.1.15,2013-04-21 20:30:00,
2013-04-21 16:40:00,52.9,19.8,30.40,East,86,0.0,2.0,27,0.00,,,0.00,Wunderground v.1.15,2013-04-21 20:40:00,
2013-04-21 16:45:00,52.5,21.1,30.40,East,94,1.0,2.0,29,0.00,,,0.00,Wunderground v.1.15,2013-04-21 20:45:00,
2013-04-21 16:55:00,52.5,27.6,30.40,East,83,1.0,1.0,38,0.00,,,0.00,Wunderground v.1.15,2013-04-21 20:55:00,
2013-04-21 17:00:00,52.8,21.4,30.40,NE,38,1.0,3.0,29,0.00,,,0.00,Wunderground v.1.15,2013-04-21 21:00:00,
2013-04-21 17:10:00,52.9,22.3,30.40,East,84,1.0,1.0,30,0.00,,,0.00,Wunderground v.1.15,2013-04-21 21:10:00,
2013-04-21 17:15:00,52.9,20.6,30.40,NE,37,1.0,1.0,28,0.00,,,0.00,Wunderground v.1.15,2013-04-21 21:15:00,
2013-04-21 17:25:00,52.8,20.5,30.40,NE,49,1.0,1.0,28,0.00,,,0.00,Wunderground v.1.15,2013-04-21 21:25:00,
2013-04-21 17:30:00,52.5,21.1,30.40,ENE,66,1.0,2.0,29,0.00,,,0.00,Wunderground v.1.15,2013-04-21 21:30:00,
2013-04-21 17:40:00,51.7,21.2,30.39,NE,55,1.0,1.0,30,0.00,,,0.00,Wunderground v.1.15,2013-04-21 21:40:00,
2013-04-21 17:45:00,51.9,22.9,30.39,ENE,59,1.0,1.0,32,0.00,,,0.00,Wunderground v.1.15,2013-04-21 21:45:00,
2013-04-21 17:55:00,52.2,20.9,30.39,ENE,59,0.0,1.0,29,0.00,,,0.00,Wunderground v.1.15,2013-04-21 21:55:00,
2013-04-21 18:00:00,52.2,20.9,30.39,ENE,59,0.0,0.0,29,0.00,,,0.00,Wunderground v.1.15,2013-04-21 22:00:00,
2013-04-21 18:10:00,52.3,21.7,30.39,ENE,59,1.0,1.0,30,0.00,,,0.00,Wunderground v.1.15,2013-04-21 22:10:00,
2013-04-21 18:15:00,52.3,21.7,30.39,NE,48,1.0,1.0,30,0.00,,,0.00,Wunderground v.1.15,2013-04-21 22:15:00,
2013-04-21 18:25:00,52.2,22.4,30.38,ENE,57,0.0,1.0,31,0.00,,,0.00,Wunderground v.1.15,2013-04-21 22:25:00,
2013-04-21 18:30:00,51.7,22.8,30.38,ENE,60,1.0,1.0,32,0.00,,,0.00,Wunderground v.1.15,2013-04-21 22:30:00,
2013-04-21 18:40:00,51.3,23.8,30.38,NE,54,1.0,1.0,34,0.00,,,0.00,Wunderground v.1.15,2013-04-21 22:40:00,
2013-04-21 18:45:00,51.1,21.5,30.38,NE,55,0.0,1.0,31,0.00,,,0.00,Wunderground v.1.15,2013-04-21 22:45:00,
2013-04-21 18:55:00,51.0,22.1,30.38,SSE,156,0.0,0.0,32,0.00,,,0.00,Wunderground v.1.15,2013-04-21 22:55:00,
2013-04-21 19:00:00,50.8,22.0,30.38,SSE,152,0.0,0.0,32,0.00,,,0.00,Wunderground v.1.15,2013-04-21 23:00:00,
2013-04-21 19:10:00,50.7,24.7,30.38,SSE,152,0.0,0.0,36,0.00,,,0.00,Wunderground v.1.15,2013-04-21 23:10:00,
2013-04-21 19:15:00,50.5,21.7,30.38,SSE,148,0.0,1.0,32,0.00,,,0.00,Wunderground v.1.15,2013-04-21 23:15:00,
2013-04-21 19:25:00,50.4,26.3,30.38,SE,125,0.0,0.0,39,0.00,,,0.00,Wunderground v.1.15,2013-04-21 23:25:00,
2013-04-21 19:30:00,50.2,24.9,30.38,SE,125,0.0,0.0,37,0.00,,,0.00,Wunderground v.1.15,2013-04-21 23:30:00,
2013-04-21 19:40:00,49.9,25.9,30.38,SE,125,0.0,0.0,39,0.00,,,0.00,Wunderground v.1.15,2013-04-21 23:40:00,
2013-04-21 19:45:00,49.8,24.5,30.38,SE,125,0.0,0.0,37,0.00,,,0.00,Wunderground v.1.15,2013-04-21 23:45:00,
2013-04-21 19:55:00,49.4,27.2,30.38,SE,125,0.0,0.0,42,0.00,,,0.00,Wunderground v.1.15,2013-04-21 23:55:00,
2013-04-21 20:00:00,48.9,25.0,30.38,SE,125,0.0,0.0,39,0.00,,,0.00,Wunderground v.1.15,2013-04-22 00:00:00,
2013-04-21 20:05:00,48.8,25.5,30.38,SE,125,0.0,0.0,40,0.00,,,0.00,Wunderground v.1.15,2013-04-22 00:05:00,
2013-04-21 20:15:00,48.0,24.2,30.38,SE,125,0.0,0.0,39,0.00,,,0.00,Wunderground v.1.15,2013-04-22 00:15:00,
2013-04-21 20:25:00,47.3,21.0,30.39,SE,125,0.0,0.0,35,0.00,,,0.00,Wunderground v.1.15,2013-04-22 00:25:00,
2013-04-21 20:30:00,46.8,20.6,30.39,SE,125,0.0,0.0,35,0.00,,,0.00,Wunderground v.1.15,2013-04-22 00:30:00,
2013-04-21 20:40:00,46.1,21.2,30.39,SE,125,0.0,0.0,37,0.00,,,0.00,Wunderground v.1.15,2013-04-22 00:40:00,
2013-04-21 20:45:00,45.7,21.5,30.39,SE,125,0.0,0.0,38,0.00,,,0.00,Wunderground v.1.15,2013-04-22 00:45:00,
2013-04-21 20:55:00,44.9,22.0,30.39,SE,125,0.0,0.0,40,0.00,,,0.00,Wunderground v.1.15,2013-04-22 00:55:00,
2013-04-21 21:00:00,44.5,21.6,30.39,SE,125,0.0,0.0,40,0.00,,,0.00,Wunderground v.1.15,2013-04-22 01:00:00,
2013-04-21 21:10:00,43.8,21.6,30.39,SE,125,0.0,0.0,41,0.00,,,0.00,Wunderground v.1.15,2013-04-22 01:10:00,
2013-04-21 21:15:00,43.3,21.1,30.39,SE,125,0.0,0.0,41,0.00,,,0.00,Wunderground v.1.15,2013-04-22 01:15:00,
2013-04-21 21:25:00,42.6,21.6,30.39,SE,125,0.0,0.0,43,0.00,,,0.00,Wunderground v.1.15,2013-04-22 01:25:00,
2013-04-21 21:30:00,42.3,22.4,30.39,SE,125,0.0,0.0,45,0.00,,,0.00,Wunderground v.1.15,2013-04-22 01:30:00,
2013-04-21 21:40:00,41.9,23.1,30.39,SE,125,0.0,0.0,47,0.00,,,0.00,Wunderground v.1.15,2013-04-22 01:40:00,
2013-04-21 21:45:00,41.6,22.3,30.39,SE,125,0.0,0.0,46,0.00,,,0.00,Wunderground v.1.15,2013-04-22 01:45:00,
2013-04-21 21:55:00,41.2,23.0,30.39,SE,125,0.0,0.0,48,0.00,,,0.00,Wunderground v.1.15,2013-04-22 01:55:00,
2013-04-21 22:00:00,41.1,22.9,30.39,SE,125,0.0,0.0,48,0.00,,,0.00,Wunderground v.1.15,2013-04-22 02:00:00,
2013-04-21 22:10:00,40.6,22.9,30.39,SE,125,0.0,0.0,49,0.00,,,0.00,Wunderground v.1.15,2013-04-22 02:10:00,
2013-04-21 22:15:00,40.5,22.8,30.39,SE,125,0.0,0.0,49,0.00,,,0.00,Wunderground v.1.15,2013-04-22 02:15:00,
2013-04-21 22:25:00,40.3,23.6,30.39,SE,125,0.0,0.0,51,0.00,,,0.00,Wunderground v.1.15,2013-04-22 02:25:00,
2013-04-21 22:30:00,40.5,23.3,30.39,SE,125,0.0,0.0,50,0.00,,,0.00,Wunderground v.1.15,2013-04-22 02:30:00,
2013-04-21 22:40:00,40.5,22.8,30.39,SE,125,0.0,0.0,49,0.00,,,0.00,Wunderground v.1.15,2013-04-22 02:40:00,
2013-04-21 22:45:00,40.3,23.1,30.39,SE,125,0.0,0.0,50,0.00,,,0.00,Wunderground v.1.15,2013-04-22 02:45:00,
2013-04-21 22:55:00,39.9,23.7,30.39,SE,125,0.0,0.0,52,0.00,,,0.00,Wunderground v.1.15,2013-04-22 02:55:00,
2013-04-21 23:00:00,39.8,24.5,30.39,SE,125,0.0,0.0,54,0.00,,,0.00,Wunderground v.1.15,2013-04-22 03:00:00,
2013-04-21 23:10:00,39.6,23.4,30.39,SE,125,0.0,0.0,52,0.00,,,0.00,Wunderground v.1.15,2013-04-22 03:10:00,
2013-04-21 23:15:00,39.5,23.8,30.39,SE,125,0.0,0.0,53,0.00,,,0.00,Wunderground v.1.15,2013-04-22 03:15:00,
2013-04-21 23:25:00,39.1,22.5,30.38,SE,125,0.0,0.0,51,0.00,,,0.00,Wunderground v.1.15,2013-04-22 03:25:00,
2013-04-21 23:30:00,39.1,22.9,30.38,SE,125,0.0,0.0,52,0.00,,,0.00,Wunderground v.1.15,2013-04-22 03:30:00,
2013-04-21 23:40:00,39.1,22.9,30.38,SE,125,0.0,0.0,52,0.00,,,0.00,Wunderground v.1.15,2013-04-22 03:40:00,
2013-04-21 23:45:00,38.9,22.8,30.38,SE,125,0.0,0.0,52,0.00,,,0.00,Wunderground v.1.15,2013-04-22 03:45:00,
2013-04-21 23:55:00,39.6,23.4,30.38,SE,125,0.0,0.0,52,0.00,,,0.00,Wunderground v.1.15,2013-04-22 03:55:00,